sensor_id;sensor_type;location;lat;lon;timestamp;P1;durP1;ratioP1;P2;durP2;ratioP2
23474;SDS011;11910;52.086;21.066;2023-12-20T00:02:16;37.30;;;25.08;;
23474;SDS011;11910;52.086;21.066;2023-12-20T00:04:42;27.73;;;21.27;;
23474;SDS011;11910;52.086;21.066;2023-12-20T00:07:08;25.55;;;19.75;;
23474;SDS011;11910;52.086;21.066;2023-12-20T00:09:33;27.02;;;21.35;;
23474;SDS011;11910;52.086;21.066;2023-12-20T00:11:59;32.33;;;22.27;;
23474;SDS011;11910;52.086;21.066;2023-12-20T00:14:24;28.15;;;21.27;;
23474;SDS011;11910;52.086;21.066;2023-12-20T00:16:50;28.88;;;20.67;;
23474;SDS011;11910;52.086;21.066;2023-12-20T00:19:15;29.20;;;22.95;;
23474;SDS011;11910;52.086;21.066;2023-12-20T00:21:41;29.33;;;21.60;;
23474;SDS011;11910;52.086;21.066;2023-12-20T00:24:07;24.75;;;19.13;;
23474;SDS011;11910;52.086;21.066;2023-12-20T00:26:32;27.02;;;20.98;;
23474;SDS011;11910;52.086;21.066;2023-12-20T00:28:59;29.23;;;21.77;;
23474;SDS011;11910;52.086;21.066;2023-12-20T00:31:24;27.98;;;20.88;;
23474;SDS011;11910;52.086;21.066;2023-12-20T00:33:50;25.48;;;19.85;;
23474;SDS011;11910;52.086;21.066;2023-12-20T00:36:16;23.73;;;19.33;;
23474;SDS011;11910;52.086;21.066;2023-12-20T00:38:41;26.65;;;21.13;;
23474;SDS011;11910;52.086;21.066;2023-12-20T00:41:07;24.20;;;17.95;;
23474;SDS011;11910;52.086;21.066;2023-12-20T00:43:32;25.10;;;18.58;;
23474;SDS011;11910;52.086;21.066;2023-12-20T00:45:58;21.10;;;16.80;;
23474;SDS011;11910;52.086;21.066;2023-12-20T00:48:25;23.35;;;17.83;;
23474;SDS011;11910;52.086;21.066;2023-12-20T00:50:52;21.42;;;17.83;;
23474;SDS011;11910;52.086;21.066;2023-12-20T00:53:17;23.13;;;18.23;;
23474;SDS011;11910;52.086;21.066;2023-12-20T00:55:43;25.40;;;19.48;;
23474;SDS011;11910;52.086;21.066;2023-12-20T00:58:10;19.88;;;15.77;;
23474;SDS011;11910;52.086;21.066;2023-12-20T01:00:35;25.60;;;19.40;;
23474;SDS011;11910;52.086;21.066;2023-12-20T01:03:01;21.85;;;17.98;;
23474;SDS011;11910;52.086;21.066;2023-12-20T01:05:27;24.23;;;18.63;;
23474;SDS011;11910;52.086;21.066;2023-12-20T01:07:52;24.27;;;17.88;;
23474;SDS011;11910;52.086;21.066;2023-12-20T01:10:18;23.30;;;16.70;;
23474;SDS011;11910;52.086;21.066;2023-12-20T01:12:43;21.42;;;16.75;;
23474;SDS011;11910;52.086;21.066;2023-12-20T01:15:09;24.17;;;18.73;;
23474;SDS011;11910;52.086;21.066;2023-12-20T01:17:35;21.25;;;17.23;;
23474;SDS011;11910;52.086;21.066;2023-12-20T01:20:01;21.08;;;16.95;;
23474;SDS011;11910;52.086;21.066;2023-12-20T01:22:26;24.95;;;19.50;;
23474;SDS011;11910;52.086;21.066;2023-12-20T01:24:52;26.05;;;19.27;;
23474;SDS011;11910;52.086;21.066;2023-12-20T01:27:18;21.15;;;17.38;;
23474;SDS011;11910;52.086;21.066;2023-12-20T01:29:43;26.17;;;20.35;;
23474;SDS011;11910;52.086;21.066;2023-12-20T01:32:09;22.88;;;18.70;;
23474;SDS011;11910;52.086;21.066;2023-12-20T01:34:35;22.25;;;17.75;;
23474;SDS011;11910;52.086;21.066;2023-12-20T01:37:01;23.80;;;19.05;;
23474;SDS011;11910;52.086;21.066;2023-12-20T01:39:27;30.05;;;22.40;;
23474;SDS011;11910;52.086;21.066;2023-12-20T01:41:53;28.08;;;21.90;;
23474;SDS011;11910;52.086;21.066;2023-12-20T01:44:18;22.88;;;17.50;;
23474;SDS011;11910;52.086;21.066;2023-12-20T01:46:44;24.95;;;17.60;;
23474;SDS011;11910;52.086;21.066;2023-12-20T01:49:11;24.13;;;18.52;;
23474;SDS011;11910;52.086;21.066;2023-12-20T01:51:37;20.48;;;16.58;;
23474;SDS011;11910;52.086;21.066;2023-12-20T01:54:03;21.40;;;17.27;;
23474;SDS011;11910;52.086;21.066;2023-12-20T01:56:29;24.55;;;18.05;;
23474;SDS011;11910;52.086;21.066;2023-12-20T01:58:56;24.05;;;18.75;;
23474;SDS011;11910;52.086;21.066;2023-12-20T02:01:23;24.05;;;18.67;;
23474;SDS011;11910;52.086;21.066;2023-12-20T02:03:49;23.02;;;17.80;;
23474;SDS011;11910;52.086;21.066;2023-12-20T02:06:15;22.85;;;16.80;;
23474;SDS011;11910;52.086;21.066;2023-12-20T02:08:41;24.05;;;18.00;;
23474;SDS011;11910;52.086;21.066;2023-12-20T02:11:07;20.20;;;16.35;;
23474;SDS011;11910;52.086;21.066;2023-12-20T02:13:33;20.50;;;16.40;;
23474;SDS011;11910;52.086;21.066;2023-12-20T02:15:58;25.92;;;17.75;;
23474;SDS011;11910;52.086;21.066;2023-12-20T02:18:25;16.52;;;13.80;;
23474;SDS011;11910;52.086;21.066;2023-12-20T02:20:50;16.77;;;13.35;;
23474;SDS011;11910;52.086;21.066;2023-12-20T02:23:16;16.80;;;13.52;;
23474;SDS011;11910;52.086;21.066;2023-12-20T02:25:42;16.35;;;13.40;;
23474;SDS011;11910;52.086;21.066;2023-12-20T02:28:07;17.20;;;12.77;;
23474;SDS011;11910;52.086;21.066;2023-12-20T02:30:33;14.93;;;11.95;;
23474;SDS011;11910;52.086;21.066;2023-12-20T02:33:01;15.10;;;11.95;;
23474;SDS011;11910;52.086;21.066;2023-12-20T02:35:32;15.27;;;11.48;;
23474;SDS011;11910;52.086;21.066;2023-12-20T02:37:58;14.93;;;11.27;;
23474;SDS011;11910;52.086;21.066;2023-12-20T02:40:23;14.15;;;10.75;;
23474;SDS011;11910;52.086;21.066;2023-12-20T02:42:49;13.15;;;10.50;;
23474;SDS011;11910;52.086;21.066;2023-12-20T02:45:14;14.43;;;10.85;;
23474;SDS011;11910;52.086;21.066;2023-12-20T02:47:40;12.80;;;10.55;;
23474;SDS011;11910;52.086;21.066;2023-12-20T02:50:05;14.38;;;10.35;;
23474;SDS011;11910;52.086;21.066;2023-12-20T02:52:31;12.00;;;9.90;;
23474;SDS011;11910;52.086;21.066;2023-12-20T02:54:57;13.38;;;11.40;;
23474;SDS011;11910;52.086;21.066;2023-12-20T02:57:22;13.80;;;11.23;;
23474;SDS011;11910;52.086;21.066;2023-12-20T02:59:48;14.23;;;10.38;;
23474;SDS011;11910;52.086;21.066;2023-12-20T03:02:14;10.70;;;8.77;;
23474;SDS011;11910;52.086;21.066;2023-12-20T03:04:40;12.07;;;10.13;;
23474;SDS011;11910;52.086;21.066;2023-12-20T03:07:05;10.48;;;9.20;;
23474;SDS011;11910;52.086;21.066;2023-12-20T03:09:31;12.20;;;9.70;;
23474;SDS011;11910;52.086;21.066;2023-12-20T03:11:57;11.75;;;9.43;;
23474;SDS011;11910;52.086;21.066;2023-12-20T03:14:22;11.20;;;9.18;;
23474;SDS011;11910;52.086;21.066;2023-12-20T03:16:51;10.05;;;9.00;;
23474;SDS011;11910;52.086;21.066;2023-12-20T03:19:17;14.98;;;9.95;;
23474;SDS011;11910;52.086;21.066;2023-12-20T03:21:44;10.43;;;9.02;;
23474;SDS011;11910;52.086;21.066;2023-12-20T03:24:10;10.98;;;9.13;;
23474;SDS011;11910;52.086;21.066;2023-12-20T03:26:35;11.40;;;9.48;;
23474;SDS011;11910;52.086;21.066;2023-12-20T03:29:01;11.93;;;9.88;;
23474;SDS011;11910;52.086;21.066;2023-12-20T03:31:26;10.73;;;8.95;;
23474;SDS011;11910;52.086;21.066;2023-12-20T03:33:52;14.70;;;11.57;;
23474;SDS011;11910;52.086;21.066;2023-12-20T03:36:18;11.55;;;9.73;;
23474;SDS011;11910;52.086;21.066;2023-12-20T03:38:44;10.43;;;8.95;;
23474;SDS011;11910;52.086;21.066;2023-12-20T03:41:10;11.05;;;9.30;;
23474;SDS011;11910;52.086;21.066;2023-12-20T03:43:36;12.52;;;10.10;;
23474;SDS011;11910;52.086;21.066;2023-12-20T03:46:02;11.93;;;9.57;;
23474;SDS011;11910;52.086;21.066;2023-12-20T03:48:29;11.75;;;9.65;;
23474;SDS011;11910;52.086;21.066;2023-12-20T03:50:55;10.98;;;9.65;;
23474;SDS011;11910;52.086;21.066;2023-12-20T03:53:21;13.63;;;10.98;;
23474;SDS011;11910;52.086;21.066;2023-12-20T03:55:47;12.38;;;10.52;;
23474;SDS011;11910;52.086;21.066;2023-12-20T03:58:12;11.50;;;9.75;;
23474;SDS011;11910;52.086;21.066;2023-12-20T04:00:38;10.77;;;9.52;;
23474;SDS011;11910;52.086;21.066;2023-12-20T04:03:04;12.70;;;10.55;;
23474;SDS011;11910;52.086;21.066;2023-12-20T04:05:29;12.40;;;10.35;;
23474;SDS011;11910;52.086;21.066;2023-12-20T04:07:55;10.50;;;8.73;;
23474;SDS011;11910;52.086;21.066;2023-12-20T04:10:20;11.63;;;9.05;;
23474;SDS011;11910;52.086;21.066;2023-12-20T04:12:46;10.93;;;9.30;;
23474;SDS011;11910;52.086;21.066;2023-12-20T04:15:15;11.63;;;9.32;;
23474;SDS011;11910;52.086;21.066;2023-12-20T04:17:40;11.00;;;9.00;;
23474;SDS011;11910;52.086;21.066;2023-12-20T04:20:06;13.15;;;10.80;;
23474;SDS011;11910;52.086;21.066;2023-12-20T04:22:32;11.82;;;10.05;;
23474;SDS011;11910;52.086;21.066;2023-12-20T04:24:58;11.35;;;9.55;;
23474;SDS011;11910;52.086;21.066;2023-12-20T04:27:23;11.68;;;9.55;;
23474;SDS011;11910;52.086;21.066;2023-12-20T04:29:49;11.80;;;10.25;;
23474;SDS011;11910;52.086;21.066;2023-12-20T04:32:14;12.82;;;10.48;;
23474;SDS011;11910;52.086;21.066;2023-12-20T04:34:40;13.13;;;10.70;;
23474;SDS011;11910;52.086;21.066;2023-12-20T04:37:05;10.90;;;9.80;;
23474;SDS011;11910;52.086;21.066;2023-12-20T04:39:31;12.20;;;10.05;;
23474;SDS011;11910;52.086;21.066;2023-12-20T04:41:56;12.90;;;10.63;;
23474;SDS011;11910;52.086;21.066;2023-12-20T04:44:22;14.25;;;9.80;;
23474;SDS011;11910;52.086;21.066;2023-12-20T04:46:48;12.40;;;10.35;;
23474;SDS011;11910;52.086;21.066;2023-12-20T04:49:14;18.05;;;10.80;;
23474;SDS011;11910;52.086;21.066;2023-12-20T04:51:39;13.45;;;10.20;;
23474;SDS011;11910;52.086;21.066;2023-12-20T04:54:05;10.65;;;9.38;;
23474;SDS011;11910;52.086;21.066;2023-12-20T04:56:30;11.13;;;9.55;;
23474;SDS011;11910;52.086;21.066;2023-12-20T04:58:59;10.82;;;9.63;;
23474;SDS011;11910;52.086;21.066;2023-12-20T05:01:24;11.13;;;9.80;;
23474;SDS011;11910;52.086;21.066;2023-12-20T05:03:50;13.40;;;11.60;;
23474;SDS011;11910;52.086;21.066;2023-12-20T05:06:16;13.25;;;10.70;;
23474;SDS011;11910;52.086;21.066;2023-12-20T05:08:41;13.93;;;11.27;;
23474;SDS011;11910;52.086;21.066;2023-12-20T05:11:07;12.27;;;10.13;;
23474;SDS011;11910;52.086;21.066;2023-12-20T05:13:32;13.80;;;11.15;;
23474;SDS011;11910;52.086;21.066;2023-12-20T05:15:58;11.77;;;10.45;;
23474;SDS011;11910;52.086;21.066;2023-12-20T05:18:23;13.10;;;11.20;;
23474;SDS011;11910;52.086;21.066;2023-12-20T05:20:49;12.60;;;10.88;;
23474;SDS011;11910;52.086;21.066;2023-12-20T05:23:16;14.90;;;12.30;;
23474;SDS011;11910;52.086;21.066;2023-12-20T05:25:42;13.90;;;12.40;;
23474;SDS011;11910;52.086;21.066;2023-12-20T05:28:08;14.40;;;12.30;;
23474;SDS011;11910;52.086;21.066;2023-12-20T05:30:33;15.30;;;12.93;;
23474;SDS011;11910;52.086;21.066;2023-12-20T05:32:59;20.33;;;15.23;;
23474;SDS011;11910;52.086;21.066;2023-12-20T05:35:24;12.95;;;11.65;;
23474;SDS011;11910;52.086;21.066;2023-12-20T05:37:50;13.38;;;11.85;;
23474;SDS011;11910;52.086;21.066;2023-12-20T05:40:15;17.35;;;13.38;;
23474;SDS011;11910;52.086;21.066;2023-12-20T05:42:41;17.80;;;13.32;;
23474;SDS011;11910;52.086;21.066;2023-12-20T05:45:07;21.48;;;14.63;;
23474;SDS011;11910;52.086;21.066;2023-12-20T05:47:32;16.90;;;13.90;;
23474;SDS011;11910;52.086;21.066;2023-12-20T05:49:58;20.48;;;14.70;;
23474;SDS011;11910;52.086;21.066;2023-12-20T05:52:24;17.55;;;13.88;;
23474;SDS011;11910;52.086;21.066;2023-12-20T05:54:49;16.15;;;13.77;;
23474;SDS011;11910;52.086;21.066;2023-12-20T05:57:18;20.98;;;15.48;;
23474;SDS011;11910;52.086;21.066;2023-12-20T05:59:43;20.55;;;15.85;;
23474;SDS011;11910;52.086;21.066;2023-12-20T06:02:09;24.02;;;17.90;;
23474;SDS011;11910;52.086;21.066;2023-12-20T06:04:35;20.92;;;16.35;;
23474;SDS011;11910;52.086;21.066;2023-12-20T06:07:00;19.25;;;14.63;;
23474;SDS011;11910;52.086;21.066;2023-12-20T06:09:29;16.95;;;14.68;;
23474;SDS011;11910;52.086;21.066;2023-12-20T06:11:54;22.25;;;17.35;;
23474;SDS011;11910;52.086;21.066;2023-12-20T06:14:20;19.70;;;15.15;;
23474;SDS011;11910;52.086;21.066;2023-12-20T06:16:46;23.20;;;17.25;;
23474;SDS011;11910;52.086;21.066;2023-12-20T06:19:12;19.63;;;15.27;;
23474;SDS011;11910;52.086;21.066;2023-12-20T06:21:37;23.45;;;17.90;;
23474;SDS011;11910;52.086;21.066;2023-12-20T06:24:03;24.52;;;18.38;;
23474;SDS011;11910;52.086;21.066;2023-12-20T06:26:29;31.88;;;19.92;;
23474;SDS011;11910;52.086;21.066;2023-12-20T06:28:54;21.27;;;16.77;;
23474;SDS011;11910;52.086;21.066;2023-12-20T06:31:20;21.20;;;16.65;;
23474;SDS011;11910;52.086;21.066;2023-12-20T06:33:46;26.65;;;20.38;;
23474;SDS011;11910;52.086;21.066;2023-12-20T06:36:12;21.92;;;17.55;;
23474;SDS011;11910;52.086;21.066;2023-12-20T06:38:38;26.33;;;17.17;;
23474;SDS011;11910;52.086;21.066;2023-12-20T06:41:04;20.88;;;16.98;;
23474;SDS011;11910;52.086;21.066;2023-12-20T06:43:30;25.38;;;18.52;;
23474;SDS011;11910;52.086;21.066;2023-12-20T06:45:56;20.23;;;15.50;;
23474;SDS011;11910;52.086;21.066;2023-12-20T06:48:22;27.02;;;18.08;;
23474;SDS011;11910;52.086;21.066;2023-12-20T06:50:47;21.08;;;16.30;;
23474;SDS011;11910;52.086;21.066;2023-12-20T06:53:13;21.73;;;17.02;;
23474;SDS011;11910;52.086;21.066;2023-12-20T06:55:38;22.52;;;17.90;;
23474;SDS011;11910;52.086;21.066;2023-12-20T06:58:04;30.60;;;22.00;;
23474;SDS011;11910;52.086;21.066;2023-12-20T07:00:30;19.75;;;16.42;;
23474;SDS011;11910;52.086;21.066;2023-12-20T07:02:55;28.15;;;19.05;;
23474;SDS011;11910;52.086;21.066;2023-12-20T07:05:21;23.80;;;17.98;;
23474;SDS011;11910;52.086;21.066;2023-12-20T07:07:49;20.48;;;16.80;;
23474;SDS011;11910;52.086;21.066;2023-12-20T07:10:15;26.80;;;17.85;;
23474;SDS011;11910;52.086;21.066;2023-12-20T07:12:40;24.20;;;18.38;;
23474;SDS011;11910;52.086;21.066;2023-12-20T07:15:06;25.40;;;18.63;;
23474;SDS011;11910;52.086;21.066;2023-12-20T07:17:32;23.08;;;18.17;;
23474;SDS011;11910;52.086;21.066;2023-12-20T07:19:58;21.98;;;17.10;;
23474;SDS011;11910;52.086;21.066;2023-12-20T07:22:28;28.60;;;20.33;;
23474;SDS011;11910;52.086;21.066;2023-12-20T07:24:57;26.98;;;20.38;;
23474;SDS011;11910;52.086;21.066;2023-12-20T07:27:23;24.77;;;20.08;;
23474;SDS011;11910;52.086;21.066;2023-12-20T07:29:49;35.00;;;22.58;;
23474;SDS011;11910;52.086;21.066;2023-12-20T07:32:15;26.30;;;18.95;;
23474;SDS011;11910;52.086;21.066;2023-12-20T07:34:40;24.30;;;18.77;;
23474;SDS011;11910;52.086;21.066;2023-12-20T07:37:06;23.77;;;18.23;;
23474;SDS011;11910;52.086;21.066;2023-12-20T07:39:31;25.50;;;19.08;;
23474;SDS011;11910;52.086;21.066;2023-12-20T07:41:57;21.55;;;16.92;;
23474;SDS011;11910;52.086;21.066;2023-12-20T07:44:22;22.42;;;17.38;;
23474;SDS011;11910;52.086;21.066;2023-12-20T07:46:48;22.13;;;16.65;;
23474;SDS011;11910;52.086;21.066;2023-12-20T07:49:14;24.58;;;17.52;;
23474;SDS011;11910;52.086;21.066;2023-12-20T07:51:39;27.65;;;19.95;;
23474;SDS011;11910;52.086;21.066;2023-12-20T07:54:05;25.88;;;19.17;;
23474;SDS011;11910;52.086;21.066;2023-12-20T07:56:33;29.60;;;20.77;;
23474;SDS011;11910;52.086;21.066;2023-12-20T07:58:58;27.83;;;19.05;;
23474;SDS011;11910;52.086;21.066;2023-12-20T08:01:24;32.45;;;21.40;;
23474;SDS011;11910;52.086;21.066;2023-12-20T08:03:49;40.17;;;24.88;;
23474;SDS011;11910;52.086;21.066;2023-12-20T08:06:15;45.92;;;26.33;;
23474;SDS011;11910;52.086;21.066;2023-12-20T08:08:42;38.05;;;23.83;;
23474;SDS011;11910;52.086;21.066;2023-12-20T08:11:07;40.83;;;24.55;;
23474;SDS011;11910;52.086;21.066;2023-12-20T08:13:33;30.50;;;20.67;;
23474;SDS011;11910;52.086;21.066;2023-12-20T08:15:59;35.72;;;22.60;;
23474;SDS011;11910;52.086;21.066;2023-12-20T08:18:24;31.65;;;20.65;;
23474;SDS011;11910;52.086;21.066;2023-12-20T08:20:50;25.80;;;18.95;;
23474;SDS011;11910;52.086;21.066;2023-12-20T08:23:17;25.65;;;18.42;;
23474;SDS011;11910;52.086;21.066;2023-12-20T08:25:45;22.48;;;17.67;;
23474;SDS011;11910;52.086;21.066;2023-12-20T08:28:11;22.58;;;17.58;;
23474;SDS011;11910;52.086;21.066;2023-12-20T08:30:36;28.90;;;19.88;;
23474;SDS011;11910;52.086;21.066;2023-12-20T08:33:02;24.35;;;18.55;;
23474;SDS011;11910;52.086;21.066;2023-12-20T08:35:28;22.33;;;17.45;;
23474;SDS011;11910;52.086;21.066;2023-12-20T08:37:53;29.73;;;19.85;;
23474;SDS011;11910;52.086;21.066;2023-12-20T08:40:19;25.55;;;18.70;;
23474;SDS011;11910;52.086;21.066;2023-12-20T08:42:45;23.27;;;18.27;;
23474;SDS011;11910;52.086;21.066;2023-12-20T08:45:20;20.80;;;16.60;;
23474;SDS011;11910;52.086;21.066;2023-12-20T08:47:46;20.90;;;16.75;;
23474;SDS011;11910;52.086;21.066;2023-12-20T08:50:11;23.58;;;17.42;;
23474;SDS011;11910;52.086;21.066;2023-12-20T08:52:37;32.33;;;19.02;;
23474;SDS011;11910;52.086;21.066;2023-12-20T08:55:03;20.45;;;15.65;;
23474;SDS011;11910;52.086;21.066;2023-12-20T08:57:29;30.15;;;18.27;;
23474;SDS011;11910;52.086;21.066;2023-12-20T08:59:56;19.85;;;14.80;;
23474;SDS011;11910;52.086;21.066;2023-12-20T09:02:22;20.60;;;14.60;;
23474;SDS011;11910;52.086;21.066;2023-12-20T09:04:48;24.17;;;17.98;;
23474;SDS011;11910;52.086;21.066;2023-12-20T09:07:26;26.55;;;18.38;;
23474;SDS011;11910;52.086;21.066;2023-12-20T09:09:52;24.90;;;17.42;;
23474;SDS011;11910;52.086;21.066;2023-12-20T09:12:18;22.58;;;16.30;;
23474;SDS011;11910;52.086;21.066;2023-12-20T09:14:45;34.92;;;19.27;;
23474;SDS011;11910;52.086;21.066;2023-12-20T09:17:15;26.90;;;17.15;;
23474;SDS011;11910;52.086;21.066;2023-12-20T09:19:42;19.83;;;15.60;;
23474;SDS011;11910;52.086;21.066;2023-12-20T09:22:11;25.15;;;16.52;;
23474;SDS011;11910;52.086;21.066;2023-12-20T09:24:37;23.55;;;16.08;;
23474;SDS011;11910;52.086;21.066;2023-12-20T09:27:03;21.73;;;14.95;;
23474;SDS011;11910;52.086;21.066;2023-12-20T09:29:30;15.75;;;12.73;;
23474;SDS011;11910;52.086;21.066;2023-12-20T09:31:56;16.58;;;12.95;;
23474;SDS011;11910;52.086;21.066;2023-12-20T09:34:22;23.33;;;15.35;;
23474;SDS011;11910;52.086;21.066;2023-12-20T09:36:48;20.23;;;14.90;;
23474;SDS011;11910;52.086;21.066;2023-12-20T09:39:14;17.77;;;13.77;;
23474;SDS011;11910;52.086;21.066;2023-12-20T09:41:43;16.13;;;12.43;;
23474;SDS011;11910;52.086;21.066;2023-12-20T09:44:14;19.05;;;13.88;;
23474;SDS011;11910;52.086;21.066;2023-12-20T09:46:43;16.10;;;12.88;;
23474;SDS011;11910;52.086;21.066;2023-12-20T09:49:10;18.65;;;13.93;;
23474;SDS011;11910;52.086;21.066;2023-12-20T09:51:37;15.45;;;11.85;;
23474;SDS011;11910;52.086;21.066;2023-12-20T09:54:04;14.98;;;11.05;;
23474;SDS011;11910;52.086;21.066;2023-12-20T09:56:30;17.13;;;12.40;;
23474;SDS011;11910;52.086;21.066;2023-12-20T09:58:56;20.52;;;13.43;;
23474;SDS011;11910;52.086;21.066;2023-12-20T10:01:22;14.55;;;11.68;;
23474;SDS011;11910;52.086;21.066;2023-12-20T10:03:51;15.82;;;13.05;;
23474;SDS011;11910;52.086;21.066;2023-12-20T10:06:20;14.48;;;11.50;;
23474;SDS011;11910;52.086;21.066;2023-12-20T10:08:46;15.90;;;12.30;;
23474;SDS011;11910;52.086;21.066;2023-12-20T10:11:12;15.07;;;10.98;;
23474;SDS011;11910;52.086;21.066;2023-12-20T10:13:42;13.02;;;10.65;;
23474;SDS011;11910;52.086;21.066;2023-12-20T10:16:08;12.55;;;10.20;;
23474;SDS011;11910;52.086;21.066;2023-12-20T10:18:33;15.52;;;11.95;;
23474;SDS011;11910;52.086;21.066;2023-12-20T10:21:00;14.18;;;11.13;;
23474;SDS011;11910;52.086;21.066;2023-12-20T10:23:26;14.32;;;11.20;;
23474;SDS011;11910;52.086;21.066;2023-12-20T10:25:58;16.30;;;12.52;;
23474;SDS011;11910;52.086;21.066;2023-12-20T10:28:24;15.40;;;12.88;;
23474;SDS011;11910;52.086;21.066;2023-12-20T10:30:55;13.88;;;11.27;;
23474;SDS011;11910;52.086;21.066;2023-12-20T10:33:24;19.77;;;15.63;;
23474;SDS011;11910;52.086;21.066;2023-12-20T10:35:54;18.67;;;14.98;;
23474;SDS011;11910;52.086;21.066;2023-12-20T10:38:21;15.15;;;12.07;;
23474;SDS011;11910;52.086;21.066;2023-12-20T10:40:47;12.02;;;10.07;;
23474;SDS011;11910;52.086;21.066;2023-12-20T10:43:14;15.15;;;11.07;;
23474;SDS011;11910;52.086;21.066;2023-12-20T10:45:41;11.00;;;9.20;;
23474;SDS011;11910;52.086;21.066;2023-12-20T10:48:09;13.88;;;10.60;;
23474;SDS011;11910;52.086;21.066;2023-12-20T10:50:36;12.13;;;10.63;;
23474;SDS011;11910;52.086;21.066;2023-12-20T10:53:06;13.57;;;9.90;;
23474;SDS011;11910;52.086;21.066;2023-12-20T10:55:32;12.18;;;9.90;;
23474;SDS011;11910;52.086;21.066;2023-12-20T10:58:02;16.95;;;11.80;;
23474;SDS011;11910;52.086;21.066;2023-12-20T11:00:35;11.88;;;9.63;;
23474;SDS011;11910;52.086;21.066;2023-12-20T11:05:36;8.27;;;6.85;;
23474;SDS011;11910;52.086;21.066;2023-12-20T11:08:07;7.53;;;5.90;;
23474;SDS011;11910;52.086;21.066;2023-12-20T11:13:32;10.30;;;7.13;;
23474;SDS011;11910;52.086;21.066;2023-12-20T11:16:02;7.75;;;6.50;;
23474;SDS011;11910;52.086;21.066;2023-12-20T11:18:31;8.60;;;6.97;;
23474;SDS011;11910;52.086;21.066;2023-12-20T11:21:06;9.13;;;7.43;;
23474;SDS011;11910;52.086;21.066;2023-12-20T11:23:32;9.15;;;7.45;;
23474;SDS011;11910;52.086;21.066;2023-12-20T11:25:59;7.35;;;6.57;;
23474;SDS011;11910;52.086;21.066;2023-12-20T11:28:26;9.15;;;7.47;;
23474;SDS011;11910;52.086;21.066;2023-12-20T11:30:56;12.32;;;7.05;;
23474;SDS011;11910;52.086;21.066;2023-12-20T11:33:30;13.00;;;8.73;;
23474;SDS011;11910;52.086;21.066;2023-12-20T11:36:02;9.95;;;7.78;;
23474;SDS011;11910;52.086;21.066;2023-12-20T11:38:37;11.15;;;8.27;;
23474;SDS011;11910;52.086;21.066;2023-12-20T11:41:05;10.15;;;8.02;;
23474;SDS011;11910;52.086;21.066;2023-12-20T11:43:35;10.02;;;7.95;;
23474;SDS011;11910;52.086;21.066;2023-12-20T11:46:08;11.15;;;8.15;;
23474;SDS011;11910;52.086;21.066;2023-12-20T11:48:35;9.55;;;7.30;;
23474;SDS011;11910;52.086;21.066;2023-12-20T11:51:02;9.27;;;7.55;;
23474;SDS011;11910;52.086;21.066;2023-12-20T11:53:34;9.30;;;7.80;;
23474;SDS011;11910;52.086;21.066;2023-12-20T11:56:00;10.20;;;7.88;;
23474;SDS011;11910;52.086;21.066;2023-12-20T11:58:28;9.80;;;7.97;;
23474;SDS011;11910;52.086;21.066;2023-12-20T12:00:53;9.23;;;7.43;;
23474;SDS011;11910;52.086;21.066;2023-12-20T12:03:20;8.98;;;6.80;;
23474;SDS011;11910;52.086;21.066;2023-12-20T12:05:49;8.55;;;7.32;;
23474;SDS011;11910;52.086;21.066;2023-12-20T12:08:15;10.15;;;7.07;;
23474;SDS011;11910;52.086;21.066;2023-12-20T12:10:42;8.98;;;7.57;;
23474;SDS011;11910;52.086;21.066;2023-12-20T12:13:09;8.68;;;7.78;;
23474;SDS011;11910;52.086;21.066;2023-12-20T12:15:35;9.93;;;8.00;;
23474;SDS011;11910;52.086;21.066;2023-12-20T12:18:01;9.48;;;8.00;;
23474;SDS011;11910;52.086;21.066;2023-12-20T12:20:27;7.93;;;7.13;;
23474;SDS011;11910;52.086;21.066;2023-12-20T12:22:59;8.35;;;6.88;;
23474;SDS011;11910;52.086;21.066;2023-12-20T12:25:26;6.43;;;5.35;;
23474;SDS011;11910;52.086;21.066;2023-12-20T12:27:53;8.45;;;6.20;;
23474;SDS011;11910;52.086;21.066;2023-12-20T12:30:19;7.40;;;6.30;;
23474;SDS011;11910;52.086;21.066;2023-12-20T12:32:44;8.45;;;6.65;;
23474;SDS011;11910;52.086;21.066;2023-12-20T12:35:10;8.43;;;5.82;;
23474;SDS011;11910;52.086;21.066;2023-12-20T12:37:39;7.35;;;5.78;;
23474;SDS011;11910;52.086;21.066;2023-12-20T12:40:15;5.60;;;5.05;;
23474;SDS011;11910;52.086;21.066;2023-12-20T12:42:42;5.68;;;5.07;;
23474;SDS011;11910;52.086;21.066;2023-12-20T12:45:09;5.75;;;5.15;;
23474;SDS011;11910;52.086;21.066;2023-12-20T12:47:36;6.35;;;4.63;;
23474;SDS011;11910;52.086;21.066;2023-12-20T12:50:02;6.32;;;4.88;;
23474;SDS011;11910;52.086;21.066;2023-12-20T12:52:30;5.90;;;4.85;;
23474;SDS011;11910;52.086;21.066;2023-12-20T12:54:56;6.88;;;5.70;;
23474;SDS011;11910;52.086;21.066;2023-12-20T12:57:21;7.75;;;5.75;;
23474;SDS011;11910;52.086;21.066;2023-12-20T12:59:47;7.35;;;5.53;;
23474;SDS011;11910;52.086;21.066;2023-12-20T13:02:13;6.90;;;5.57;;
23474;SDS011;11910;52.086;21.066;2023-12-20T13:04:39;7.97;;;5.47;;
23474;SDS011;11910;52.086;21.066;2023-12-20T13:07:06;7.00;;;5.43;;
23474;SDS011;11910;52.086;21.066;2023-12-20T13:09:35;7.72;;;5.70;;
23474;SDS011;11910;52.086;21.066;2023-12-20T13:12:01;7.80;;;5.22;;
23474;SDS011;11910;52.086;21.066;2023-12-20T13:14:28;10.75;;;6.35;;
23474;SDS011;11910;52.086;21.066;2023-12-20T13:16:54;7.45;;;5.82;;
23474;SDS011;11910;52.086;21.066;2023-12-20T13:19:21;6.95;;;5.90;;
23474;SDS011;11910;52.086;21.066;2023-12-20T13:21:46;6.82;;;4.38;;
23474;SDS011;11910;52.086;21.066;2023-12-20T13:24:12;8.60;;;5.68;;
23474;SDS011;11910;52.086;21.066;2023-12-20T13:26:37;7.18;;;5.65;;
23474;SDS011;11910;52.086;21.066;2023-12-20T13:29:03;9.07;;;6.30;;
23474;SDS011;11910;52.086;21.066;2023-12-20T13:31:29;7.13;;;5.50;;
23474;SDS011;11910;52.086;21.066;2023-12-20T13:33:54;8.68;;;6.15;;
23474;SDS011;11910;52.086;21.066;2023-12-20T13:36:20;9.00;;;6.22;;
23474;SDS011;11910;52.086;21.066;2023-12-20T13:38:46;11.70;;;6.20;;
23474;SDS011;11910;52.086;21.066;2023-12-20T13:41:11;8.45;;;6.30;;
23474;SDS011;11910;52.086;21.066;2023-12-20T13:43:37;8.85;;;6.57;;
23474;SDS011;11910;52.086;21.066;2023-12-20T13:46:03;7.05;;;6.13;;
23474;SDS011;11910;52.086;21.066;2023-12-20T13:48:28;9.05;;;6.25;;
23474;SDS011;11910;52.086;21.066;2023-12-20T13:50:54;9.65;;;6.90;;
23474;SDS011;11910;52.086;21.066;2023-12-20T13:53:19;11.00;;;7.18;;
23474;SDS011;11910;52.086;21.066;2023-12-20T13:55:47;9.60;;;7.50;;
23474;SDS011;11910;52.086;21.066;2023-12-20T13:58:13;11.70;;;7.38;;
23474;SDS011;11910;52.086;21.066;2023-12-20T14:00:39;12.10;;;7.50;;
23474;SDS011;11910;52.086;21.066;2023-12-20T14:03:05;10.60;;;8.00;;
23474;SDS011;11910;52.086;21.066;2023-12-20T14:05:31;11.23;;;8.10;;
23474;SDS011;11910;52.086;21.066;2023-12-20T14:07:56;11.23;;;8.93;;
23474;SDS011;11910;52.086;21.066;2023-12-20T14:10:22;10.30;;;8.85;;
23474;SDS011;11910;52.086;21.066;2023-12-20T14:12:48;12.25;;;9.13;;
23474;SDS011;11910;52.086;21.066;2023-12-20T14:15:14;10.55;;;8.27;;
23474;SDS011;11910;52.086;21.066;2023-12-20T14:17:40;11.52;;;8.48;;